This is the latest recevied weather packets stored in our database for station/object DO1BDB-12. If no packets are shown the sender has not sent any weather packets the latest 10 day(s).
| Time | Temp. | Humidity | Pressure | Rain* | Wind** | Luminosity | Snow |
|---|---|---|---|---|---|---|---|
| 1778235800 | 15° C | 41% | 102.2 hPa | - | - | - | - |
| 1778235734 | 13.89° C | 42% | 102.2 hPa | - | - | - | - |
| 1778235669 | 13.89° C | 42% | 102.2 hPa | - | - | - | - |
| 1778235603 | 13.33° C | 42% | 102.2 hPa | - | - | - | - |
| 1778235537 | 13.89° C | 39% | 102.2 hPa | - | - | - | - |
| 1778234879 | 14.44° C | 39% | 102.2 hPa | - | - | - | - |
| 1778234813 | 16.11° C | 40% | 102.2 hPa | - | - | - | - |
| 1778234747 | 15.56° C | 39% | 102.2 hPa | - | - | - | - |
| 1778234681 | 15.56° C | 40% | 102.2 hPa | - | - | - | - |
| 1778234615 | 16.11° C | 39% | 102.2 hPa | - | - | - | - |
| 1778234549 | 16.67° C | 40% | 102.2 hPa | - | - | - | - |
| 1778234483 | 15.56° C | 42% | 102.2 hPa | - | - | - | - |
| 1778233825 | 12.78° C | 44% | 102.2 hPa | - | - | - | - |
| 1778233759 | 13.33° C | 44% | 102.2 hPa | - | - | - | - |
| 1778233693 | 15.56° C | 41% | 102.2 hPa | - | - | - | - |
| 1778233627 | 16.11° C | 41% | 102.2 hPa | - | - | - | - |
| 1778233562 | 15° C | 42% | 102.2 hPa | - | - | - | - |
| 1778233496 | 14.44° C | 45% | 102.2 hPa | - | - | - | - |
| 1778233430 | 14.44° C | 45% | 102.2 hPa | - | - | - | - |
| 1778233364 | 13.33° C | 45% | 102.2 hPa | - | - | - | - |
| 1778233298 | 15° C | 44% | 102.2 hPa | - | - | - | - |
| 1778233232 | 13.89° C | 43% | 102.2 hPa | - | - | - | - |
| 1778233167 | 15° C | 44% | 102.2 hPa | - | - | - | - |
| 1778233101 | 13.33° C | 47% | 102.2 hPa | - | - | - | - |
| 1778233035 | 12.78° C | 47% | 102.2 hPa | - | - | - | - |
* Rain since midnight (hover to see other rain measurements)
** Current wind speed in m/s (hover to see current wind gust speed)